Weather at Warsaw Chopin Airport

Public forecast

Using degrees Celsius for public forecast. Weather courtesy of forecast.io.

Current aviation weather report (METAR) for Warsaw Chopin Airport

2024/04/13 13:00 (retrieved 15 minutes ago)

EPWA 131300Z 26018KT CAVOK 19/09 Q1021 NOSIG

Aviation forecast (TAF) for Warsaw Chopin Airport

2024/04/13 12:37 (retrieved 38 minutes ago)

TAF EPWA 131130Z 1312/1412 27015KT 9999 BKN045 TEMPO 1312/1316 28016G26KT BECMG 1318/1321 21005KT BECMG 1405/1408 27013KT TEMPO 1408/1412 28018G33KT 4000 SHRA BKN035CB PROB40 TEMPO 1409/1412 2000 TSRA